LFKS 221500Z AUTO 16005KT 120V190 CAVOK 15/11 Q1031

ElémentsDécodage
LFKS Station météo située sur l'aérodrome de SOLENZARA
221500Z émis le 22 du mois à 15h00 UTC
AUTO Bulletin édité par un automate
16005KT vent du 160°, 05 noeuds
120V190 vent de direction variable entre 120° et 190°
CAVOK Ceiling And Visibility OK
- Visibilité de 10 Km ou plus
- Pas de nuage au-dessous de 1500m ou au-dessous de l'altitude minimale du secteur la plus élevée (si>1500m) et absence de CB
- pas de temps présent significatif
15/11 température 15°C, point de rosée 11°C
 soit une humidité relative de 77%
Q1031 la pression au niveau de la mer (QNH) est de 1031 hPa